Time;durP1;ratioP1;P1;durP2;ratioP2;P2;SDS_P1;SDS_P2;PMS_P1;PMS_P2;Temp;Humidity;BMP_temperature;BMP_pressure;BME280_temperature;BME280_humidity;BME280_pressure;Samples;Min_cycle;Max_cycle;Signal;HPM_P1;HPM_P2
2023/08/10 00:00:58;;;;;;;0.80;0.80;;;;;;;21.99;41.90;101824.69;5053322;28;20033;-63
2023/08/10 00:03:24;;;;;;;3.83;1.33;;;;;;;21.94;41.38;101822.47;5035660;28;20040;-62
2023/08/10 00:05:49;;;;;;;2.20;0.68;;;;;;;21.92;42.30;101824.53;5051592;28;20033;-62
2023/08/10 00:08:14;;;;;;;3.03;1.00;;;;;;;21.90;42.26;101825.75;5051615;28;20060;-62
2023/08/10 00:10:40;;;;;;;1.55;0.90;;;;;;;21.86;42.23;101829.84;5052956;28;20558;-63
2023/08/10 00:13:06;;;;;;;7.82;1.30;;;;;;;21.85;42.70;101828.13;5051893;28;20041;-62
2023/08/10 00:15:31;;;;;;;4.50;1.00;;;;;;;21.86;42.67;101830.69;5051724;28;20102;-63
2023/08/10 00:17:57;;;;;;;3.95;1.10;;;;;;;21.87;42.90;101831.56;5050378;28;20099;-63
2023/08/10 00:20:22;;;;;;;1.10;0.75;;;;;;;21.88;42.40;101833.28;5051662;28;20091;-62
2023/08/10 00:22:47;;;;;;;2.58;0.82;;;;;;;21.87;42.43;101829.69;5051664;28;20053;-62
2023/08/10 00:25:13;;;;;;;0.93;0.80;;;;;;;21.86;42.53;101829.84;5051544;28;20044;-62
2023/08/10 00:27:38;;;;;;;3.08;0.90;;;;;;;21.88;42.32;101844.19;5051675;28;20468;-63
2023/08/10 00:30:05;;;;;;;0.80;0.80;;;;;;;21.88;42.92;101833.28;5052797;28;20029;-62
2023/08/10 00:32:31;;;;;;;2.65;0.90;;;;;;;21.89;42.38;101829.50;5051368;28;20124;-62
2023/08/10 00:34:57;;;;;;;1.42;1.00;;;;;;;21.90;42.93;101826.59;5035024;28;20082;-62
2023/08/10 00:37:23;;;;;;;3.30;1.10;;;;;;;21.90;43.35;101825.75;5051283;28;20033;-62
2023/08/10 00:39:48;;;;;;;2.97;1.20;;;;;;;21.90;42.87;101825.75;5051182;28;20036;-62
2023/08/10 00:42:14;;;;;;;1.30;0.90;;;;;;;21.93;43.15;101830.84;5052651;28;20074;-63
2023/08/10 00:44:39;;;;;;;5.63;1.48;;;;;;;21.92;43.44;101834.59;5051231;28;20519;-63
2023/08/10 00:47:06;;;;;;;4.78;0.82;;;;;;;21.94;42.91;101838.84;5051070;28;20116;-63
2023/08/10 00:49:32;;;;;;;1.13;0.60;;;;;;;21.94;42.83;101829.84;5051332;28;20059;-62
2023/08/10 00:51:57;;;;;;;2.58;0.85;;;;;;;21.95;42.59;101826.91;5051519;28;20484;-62
2023/08/10 00:54:22;;;;;;;2.58;1.00;;;;;;;21.95;43.39;101829.66;5051140;28;20531;-62
2023/08/10 00:56:50;;;;;;;3.17;0.88;;;;;;;21.97;43.39;101829.47;5051064;28;20041;-62
2023/08/10 00:59:16;;;;;;;2.33;1.00;;;;;;;21.98;43.88;101833.88;5052343;28;20100;-62
2023/08/10 01:01:44;;;;;;;3.78;1.08;;;;;;;21.97;44.18;101838.50;5054064;28;20040;-62
2023/08/10 01:04:09;;;;;;;5.15;1.48;;;;;;;21.98;43.18;101829.28;5055327;28;20037;-62
2023/08/10 01:06:44;;;;;;;2.20;1.27;;;;;;;21.99;44.01;101830.16;5055351;28;20067;-62
2023/08/10 01:09:28;;;;;;;2.42;0.82;;;;;;;22.02;43.50;101830.66;5054880;28;20508;-62
2023/08/10 01:12:02;;;;;;;6.65;1.10;;;;;;;22.04;44.04;101833.19;5054923;28;20033;-62
2023/08/10 01:14:56;;;;;;;3.22;1.08;;;;;;;22.06;43.82;101836.56;5038471;28;20411;-62
2023/08/10 01:17:27;;;;;;;2.35;1.52;;;;;;;22.05;44.27;101826.69;5054645;28;20398;-62
2023/08/10 01:19:53;;;;;;;6.75;1.08;;;;;;;22.08;44.39;101828.22;5054006;28;20120;-63
2023/08/10 01:22:28;;;;;;;1.92;1.00;;;;;;;22.08;44.15;101837.25;5053733;28;20492;-62
2023/08/10 01:25:05;;;;;;;2.15;0.90;;;;;;;22.08;43.80;101840.00;5038204;28;20033;-62
2023/08/10 01:27:32;;;;;;;1.65;1.10;;;;;;;22.08;44.41;101844.59;5054800;28;20037;-63
2023/08/10 01:29:58;;;;;;;4.20;0.95;;;;;;;22.07;44.37;101843.75;5054694;28;20029;-63
2023/08/10 01:32:25;;;;;;;3.05;0.85;;;;;;;22.07;44.00;101849.19;5054488;28;20480;-62
2023/08/10 01:34:52;;;;;;;2.55;0.90;;;;;;;22.04;44.56;101853.13;5055917;28;20029;-62
2023/08/10 01:37:17;;;;;;;1.35;1.15;;;;;;;22.03;43.82;101842.38;5054523;28;20033;-62
2023/08/10 01:39:43;;;;;;;2.85;0.90;;;;;;;22.00;44.60;101849.06;5055692;28;20029;-62
2023/08/10 01:42:08;;;;;;;5.18;1.08;;;;;;;22.00;44.38;101856.38;5055486;28;20068;-63
2023/08/10 01:44:33;;;;;;;1.92;1.00;;;;;;;21.96;44.06;101845.00;5020865;28;20029;-62
2023/08/10 01:47:02;;;;;;;2.70;1.23;;;;;;;21.94;43.98;101849.75;5056067;28;20527;-62
2023/08/10 01:49:30;;;;;;;2.17;1.00;;;;;;;21.93;44.50;101845.34;5054299;28;20087;-62
2023/08/10 01:51:57;;;;;;;7.00;1.27;;;;;;;21.90;44.45;101842.13;5054266;28;20029;-62
2023/08/10 01:54:23;;;;;;;5.85;1.10;;;;;;;21.92;44.04;101851.81;5054367;28;20032;-62
2023/08/10 01:56:48;;;;;;;0.80;0.75;;;;;;;21.93;44.58;101850.81;5054404;28;20442;-62
2023/08/10 01:59:14;;;;;;;4.70;1.05;;;;;;;21.91;44.20;101852.03;5054123;28;20029;-62
2023/08/10 02:01:39;;;;;;;2.38;1.52;;;;;;;21.90;44.88;101842.97;5054339;28;20021;-63
2023/08/10 02:04:05;;;;;;;1.50;1.02;;;;;;;21.94;44.53;101843.47;5054430;28;20097;-62
2023/08/10 02:06:32;;;;;;;3.83;1.50;;;;;;;21.93;44.42;101842.63;5054066;28;20561;-62
2023/08/10 02:08:57;;;;;;;1.70;1.20;;;;;;;21.94;45.13;101844.31;5058336;28;20052;-65
2023/08/10 02:11:22;;;;;;;3.97;1.25;;;;;;;21.95;44.84;101836.97;5060759;28;20116;-65
2023/08/10 02:13:48;;;;;;;1.30;0.82;;;;;;;21.98;44.93;101834.75;5058967;28;20330;-63
2023/08/10 02:16:14;;;;;;;4.10;1.00;;;;;;;21.98;44.48;101842.94;5058998;28;20029;-62
2023/08/10 02:18:39;;;;;;;1.90;1.05;;;;;;;21.98;44.89;101848.38;5058422;28;20045;-66
2023/08/10 02:21:05;;;;;;;3.05;1.38;;;;;;;22.00;44.69;101842.75;5055991;28;20033;-62
2023/08/10 02:23:32;;;;;;;2.10;1.08;;;;;;;22.02;45.33;101838.84;5054709;28;20037;-62
2023/08/10 02:25:57;;;;;;;3.28;0.90;;;;;;;22.02;45.29;101835.25;5055822;28;20057;-62
2023/08/10 02:28:24;;;;;;;2.92;1.10;;;;;;;22.00;45.19;101838.13;5037461;28;20061;-62
2023/08/10 02:30:50;;;;;;;3.40;1.70;;;;;;;22.02;45.21;101841.56;5037602;28;20034;-62
2023/08/10 02:33:15;;;;;;;1.20;0.95;;;;;;;22.04;45.00;101846.81;5054422;28;20025;-62
2023/08/10 02:35:40;;;;;;;3.15;1.05;;;;;;;22.04;45.40;101847.69;5053714;28;20029;-62
2023/08/10 02:38:06;;;;;;;1.63;1.17;;;;;;;22.03;44.74;101843.25;5054092;28;20057;-62
2023/08/10 02:40:31;;;;;;;4.03;1.00;;;;;;;22.04;44.64;101844.09;5054932;28;20044;-62
2023/08/10 02:42:56;;;;;;;3.47;1.25;;;;;;;22.01;45.38;101839.00;5036812;28;20040;-62
2023/08/10 02:45:22;;;;;;;2.03;1.20;;;;;;;22.01;45.10;101844.44;5054566;28;20068;-62
2023/08/10 02:47:47;;;;;;;5.70;1.20;;;;;;;22.03;44.76;101845.13;5053312;28;20040;-62
2023/08/10 02:50:12;;;;;;;2.63;1.33;;;;;;;22.04;44.74;101849.56;5054491;28;20124;-62
2023/08/10 02:52:38;;;;;;;1.85;1.20;;;;;;;22.01;44.76;101855.38;5053868;28;20135;-62
2023/08/10 02:55:04;;;;;;;4.90;1.30;;;;;;;21.98;45.26;101851.13;5053259;28;20044;-63
2023/08/10 02:57:30;;;;;;;2.28;1.38;;;;;;;21.97;45.21;101851.31;5035311;28;20032;-62
2023/08/10 02:59:55;;;;;;;2.17;1.42;;;;;;;21.94;45.22;101854.41;5053071;28;20454;-62
2023/08/10 03:02:21;;;;;;;2.20;1.23;;;;;;;21.92;45.17;101853.69;5054313;28;20151;-63
2023/08/10 03:04:47;;;;;;;1.33;1.15;;;;;;;21.88;44.99;101846.91;5036305;28;20162;-63
2023/08/10 03:07:13;;;;;;;7.65;1.88;;;;;;;21.88;45.15;101855.09;5052740;28;20103;-62
2023/08/10 03:09:41;;;;;;;3.22;1.50;;;;;;;21.84;44.46;101857.28;5054150;28;20036;-62
2023/08/10 03:12:07;;;;;;;1.60;1.20;;;;;;;21.81;44.53;101860.38;5053213;28;20068;-63
2023/08/10 03:14:33;;;;;;;4.15;1.23;;;;;;;21.77;44.92;101858.19;5054387;28;20408;-62
2023/08/10 03:16:59;;;;;;;3.15;1.08;;;;;;;21.72;45.21;101860.59;5053972;28;20496;-62
2023/08/10 03:19:25;;;;;;;2.28;1.17;;;;;;;21.70;45.01;101868.09;5052483;28;20033;-63
2023/08/10 03:21:50;;;;;;;2.83;1.20;;;;;;;21.65;45.05;101862.31;5052543;28;20029;-62
2023/08/10 03:24:16;;;;;;;2.65;1.25;;;;;;;21.62;45.30;101865.38;5052547;28;20029;-62
2023/08/10 03:26:41;;;;;;;1.85;1.10;;;;;;;21.58;45.28;101864.06;5053801;28;20033;-62
2023/08/10 03:29:06;;;;;;;2.50;1.45;;;;;;;21.53;44.99;101860.97;5053638;28;20064;-62
2023/08/10 03:31:32;;;;;;;6.82;1.60;;;;;;;21.49;45.57;101863.22;5052419;28;20064;-62
2023/08/10 03:33:57;;;;;;;3.65;1.58;;;;;;;21.43;45.25;101844.84;5052478;28;20025;-63
2023/08/10 03:36:23;;;;;;;1.67;1.20;;;;;;;21.41;45.22;101861.34;5052083;28;20029;-62
2023/08/10 03:38:48;;;;;;;3.33;1.50;;;;;;;21.37;45.01;101846.38;5035686;28;20029;-62
2023/08/10 03:41:13;;;;;;;2.75;1.30;;;;;;;21.35;45.20;101859.34;5053658;28;20418;-63
2023/08/10 03:43:39;;;;;;;1.83;1.38;;;;;;;21.28;45.85;101850.16;5053663;28;20036;-62
2023/08/10 03:46:06;;;;;;;4.13;1.60;;;;;;;21.26;44.93;101846.75;5053803;28;20094;-62
2023/08/10 03:48:32;;;;;;;10.60;2.13;;;;;;;21.24;45.19;101851.53;5052313;28;20496;-62
2023/08/10 03:50:57;;;;;;;2.63;1.58;;;;;;;21.21;45.01;101851.88;5051917;28;20091;-62
2023/08/10 03:53:23;;;;;;;1.65;1.25;;;;;;;21.17;45.53;101863.28;5052047;28;20091;-62
2023/08/10 03:55:48;;;;;;;2.58;1.33;;;;;;;21.15;45.39;101868.06;5053186;28;20052;-64
2023/08/10 03:58:14;;;;;;;2.17;1.27;;;;;;;21.11;45.12;101862.09;5052400;28;20021;-63
2023/08/10 04:00:44;;;;;;;2.92;1.40;;;;;;;21.10;45.15;101873.19;5051587;28;20508;-62
2023/08/10 04:03:11;;;;;;;4.18;1.30;;;;;;;21.07;45.48;101877.13;5052126;28;20087;-61
2023/08/10 04:05:37;;;;;;;2.55;1.40;;;;;;;21.05;45.08;101881.81;5052218;28;20027;-62
2023/08/10 04:08:03;;;;;;;1.45;1.30;;;;;;;21.05;45.02;101881.00;5051969;28;20392;-62
2023/08/10 04:10:29;;;;;;;2.55;1.40;;;;;;;21.02;45.59;101890.34;5035561;28;20476;-61
2023/08/10 04:12:55;;;;;;;1.92;1.30;;;;;;;21.00;45.75;101888.81;5052233;28;20384;-61
2023/08/10 04:15:21;;;;;;;2.83;1.33;;;;;;;20.97;45.80;101886.44;5051804;28;20032;-62
2023/08/10 04:17:46;;;;;;;1.38;1.27;;;;;;;20.95;46.14;101894.78;5051662;28;20057;-62
2023/08/10 04:20:13;;;;;;;3.10;1.60;;;;;;;20.94;46.25;101898.53;5052048;28;20075;-62
2023/08/10 04:22:39;;;;;;;2.03;1.35;;;;;;;20.88;46.01;101888.34;5053038;28;20017;-61
2023/08/10 04:25:07;;;;;;;3.17;1.40;;;;;;;20.89;45.34;101884.56;5052824;28;20384;-62
2023/08/10 04:27:33;;;;;;;6.00;1.48;;;;;;;20.88;46.01;101882.88;5051627;28;20106;-62
2023/08/10 04:29:58;;;;;;;4.32;1.55;;;;;;;20.88;45.97;101888.34;5051032;28;20512;-62
2023/08/10 04:32:24;;;;;;;3.97;1.75;;;;;;;20.87;45.85;101886.63;5051694;28;20056;-62
2023/08/10 04:34:51;;;;;;;3.50;1.70;;;;;;;20.87;45.77;101895.66;5035516;28;20033;-61
2023/08/10 04:37:17;;;;;;;6.95;1.52;;;;;;;20.84;45.60;101890.53;5034710;28;20116;-61
2023/08/10 04:39:43;;;;;;;6.90;1.02;;;;;;;20.81;45.57;101887.28;5034855;28;20108;-61
2023/08/10 04:42:08;;;;;;;6.45;1.60;;;;;;;20.83;46.36;101899.72;5052749;28;20045;-61
2023/08/10 04:44:34;;;;;;;2.13;1.42;;;;;;;20.80;45.68;101901.91;5051339;28;20029;-62
2023/08/10 04:46:59;;;;;;;3.40;1.60;;;;;;;20.79;46.02;101903.81;5052647;28;20145;-64
2023/08/10 04:49:27;;;;;;;6.10;1.40;;;;;;;20.80;46.43;101912.81;5050340;28;20451;-62
2023/08/10 04:51:52;;;;;;;4.70;1.90;;;;;;;20.81;46.30;101900.91;5053064;28;20045;-62
2023/08/10 04:54:18;;;;;;;4.05;1.50;;;;;;;20.81;45.95;101909.09;5052407;28;20040;-62
2023/08/10 04:56:43;;;;;;;3.15;1.70;;;;;;;20.76;46.24;101895.13;5030572;28;20112;-62
2023/08/10 04:59:10;;;;;;;4.95;1.35;;;;;;;20.82;46.30;101916.25;5031443;28;20068;-62
2023/08/10 05:01:35;;;;;;;2.40;1.45;;;;;;;20.81;46.02;101906.34;5033965;28;20041;-63
2023/08/10 05:04:01;;;;;;;2.63;1.08;;;;;;;20.83;46.18;101913.34;5052790;28;20037;-62
2023/08/10 05:06:26;;;;;;;4.40;1.17;;;;;;;20.83;46.10;101918.78;5034794;28;20049;-61
2023/08/10 05:08:51;;;;;;;3.25;1.17;;;;;;;20.87;46.06;101902.97;5051200;28;20478;-62
2023/08/10 05:11:17;;;;;;;6.38;1.50;;;;;;;20.88;46.13;101904.69;5051298;28;20056;-62
2023/08/10 05:13:42;;;;;;;3.38;1.70;;;;;;;20.90;46.46;101902.63;5052205;28;20041;-62
2023/08/10 05:16:08;;;;;;;5.03;1.42;;;;;;;20.94;46.38;101914.88;5051105;28;20032;-62
2023/08/10 05:18:33;;;;;;;8.93;4.45;;;;;;;20.92;46.32;101895.97;5050855;28;20496;-62
2023/08/10 05:20:59;;;;;;;5.07;2.78;;;;;;;20.99;46.05;101911.66;5051113;28;20038;-62
2023/08/10 05:23:25;;;;;;;4.35;2.08;;;;;;;21.06;45.84;101912.66;5051366;28;20033;-62
2023/08/10 05:25:50;;;;;;;6.05;2.00;;;;;;;21.11;46.51;101913.88;5050875;28;20048;-62
2023/08/10 05:28:16;;;;;;;3.28;1.50;;;;;;;21.21;46.16;101914.56;5051055;28;20033;-62
2023/08/10 05:30:41;;;;;;;6.85;1.92;;;;;;;21.28;46.65;101907.41;5050737;28;20029;-62
2023/08/10 05:33:07;;;;;;;6.78;1.90;;;;;;;21.37;46.57;101909.09;5052131;28;20033;-62
2023/08/10 05:35:32;;;;;;;3.10;1.95;;;;;;;21.50;47.09;101911.25;5052390;28;20471;-61
2023/08/10 05:37:57;;;;;;;3.63;1.33;;;;;;;21.58;47.15;101913.16;5051041;28;20021;-62
2023/08/10 05:40:23;;;;;;;5.22;1.73;;;;;;;21.65;45.95;101908.69;5052306;28;20029;-62
2023/08/10 05:42:48;;;;;;;6.50;2.08;;;;;;;21.75;46.70;101906.59;5052023;28;20107;-62
2023/08/10 05:45:19;;;;;;;4.38;2.10;;;;;;;21.81;46.18;101908.63;5050628;28;20031;-62
2023/08/10 05:47:45;;;;;;;5.75;1.83;;;;;;;21.87;46.26;101911.53;5052172;28;20029;-63
2023/08/10 05:50:14;;;;;;;4.60;1.70;;;;;;;22.13;45.63;101914.00;5054407;28;20025;-62
2023/08/10 05:52:39;;;;;;;4.85;1.95;;;;;;;22.39;45.53;101910.97;5054008;28;20047;-62
2023/08/10 05:55:05;;;;;;;5.20;1.70;;;;;;;22.61;46.06;101919.16;5054366;28;20029;-63
2023/08/10 05:57:31;;;;;;;9.95;2.42;;;;;;;22.78;45.72;101910.91;5037441;28;20199;-62
2023/08/10 05:59:56;;;;;;;6.80;1.67;;;;;;;23.04;45.39;101908.63;5047262;28;20037;-67
2023/08/10 06:02:22;;;;;;;7.60;2.03;;;;;;;23.31;44.56;101905.28;5054104;28;20546;-62
2023/08/10 06:04:48;;;;;;;5.20;1.73;;;;;;;23.54;44.62;101897.91;5054044;28;20032;-62
2023/08/10 06:07:14;;;;;;;5.57;1.67;;;;;;;23.73;44.98;101899.22;5053440;28;20041;-62
2023/08/10 06:09:39;;;;;;;3.60;1.92;;;;;;;23.97;44.39;101906.28;5055340;28;20033;-62
2023/08/10 06:12:06;;;;;;;6.32;2.22;;;;;;;24.18;43.97;101900.91;5054088;28;20029;-62
2023/08/10 06:14:31;;;;;;;4.63;1.60;;;;;;;24.42;43.47;101906.06;5055085;28;20037;-63
2023/08/10 06:16:57;;;;;;;4.63;1.73;;;;;;;24.65;44.03;101911.38;5037100;28;20405;-63
2023/08/10 06:19:23;;;;;;;3.42;1.70;;;;;;;24.86;43.79;101915.00;5053351;28;20052;-62
2023/08/10 06:21:50;;;;;;;3.92;2.00;;;;;;;25.08;43.18;101920.44;5053590;28;20125;-62
2023/08/10 06:24:16;;;;;;;8.05;2.05;;;;;;;25.29;43.41;101921.25;5053589;28;20037;-62
2023/08/10 06:26:42;;;;;;;2.17;1.85;;;;;;;25.50;42.83;101923.16;5054752;28;20041;-62
2023/08/10 06:29:07;;;;;;;5.57;1.80;;;;;;;25.69;42.75;101914.19;5053209;28;20377;-64
2023/08/10 06:31:33;;;;;;;7.13;1.80;;;;;;;25.87;42.86;101914.53;5054560;28;20044;-64
2023/08/10 06:33:58;;;;;;;4.88;1.95;;;;;;;26.04;42.92;101915.91;5053521;28;20074;-63
2023/08/10 06:36:25;;;;;;;4.80;2.10;;;;;;;26.22;41.95;101909.00;5036726;28;20083;-63
2023/08/10 06:38:50;;;;;;;2.53;1.85;;;;;;;26.39;42.51;101907.59;5054644;28;20029;-62
2023/08/10 06:41:16;;;;;;;3.60;2.00;;;;;;;26.56;42.25;101908.91;5036786;28;20021;-62
2023/08/10 06:43:42;;;;;;;6.25;2.10;;;;;;;26.75;41.78;101902.59;5053420;28;20029;-62
2023/08/10 06:46:07;;;;;;;5.18;2.25;;;;;;;26.91;41.48;101902.22;5054390;28;20116;-62
2023/08/10 06:48:32;;;;;;;5.55;1.80;;;;;;;27.08;41.51;101902.69;5053268;28;20033;-63
2023/08/10 06:50:58;;;;;;;9.65;2.50;;;;;;;27.23;40.84;101896.94;5054058;28;20056;-63
2023/08/10 06:53:23;;;;;;;6.25;2.35;;;;;;;27.38;41.29;101892.06;5036473;28;20029;-65
2023/08/10 06:55:50;;;;;;;6.32;2.60;;;;;;;27.51;40.92;101887.44;5054389;28;20036;-63
2023/08/10 06:58:16;;;;;;;3.58;2.13;;;;;;;27.63;40.74;101885.72;5052992;28;20033;-62
2023/08/10 07:00:42;;;;;;;6.00;2.45;;;;;;;27.70;39.76;101888.44;5052221;28;20060;-62
2023/08/10 07:03:07;;;;;;;4.28;1.80;;;;;;;27.86;40.75;101900.91;5052819;28;20108;-63
2023/08/10 07:05:41;;;;;;;4.28;2.13;;;;;;;28.04;40.19;101903.81;5035972;28;20083;-63
2023/08/10 07:08:08;;;;;;;4.40;1.90;;;;;;;28.18;39.94;101895.31;5052586;28;20033;-63
2023/08/10 07:10:34;;;;;;;5.32;2.20;;;;;;;28.29;39.33;101897.38;5053961;28;20083;-62
2023/08/10 07:12:59;;;;;;;7.28;2.15;;;;;;;28.43;39.20;101902.78;5052653;28;20091;-62
2023/08/10 07:15:26;;;;;;;2.08;1.27;;;;;;;28.56;39.59;101902.75;5052716;28;20068;-62
2023/08/10 07:17:52;;;;;;;2.45;1.42;;;;;;;28.71;39.46;101897.78;5052371;28;20041;-62
2023/08/10 07:20:18;;;;;;;1.33;1.02;;;;;;;28.87;38.80;101900.00;5053757;28;20119;-63
2023/08/10 07:22:45;;;;;;;3.55;1.55;;;;;;;29.00;38.75;101901.81;5035994;28;20508;-63
2023/08/10 07:25:11;;;;;;;5.70;1.60;;;;;;;29.12;38.30;101900.03;5053732;28;20412;-63
2023/08/10 07:27:37;;;;;;;5.47;1.65;;;;;;;29.26;37.83;101894.19;5053704;28;20033;-62
2023/08/10 07:30:05;;;;;;;4.43;1.48;;;;;;;29.46;37.95;101896.75;5052265;28;20510;-62
2023/08/10 07:32:31;;;;;;;2.88;1.15;;;;;;;29.64;38.01;101890.44;5052506;28;20037;-63
2023/08/10 07:34:56;;;;;;;3.20;1.42;;;;;;;29.85;37.19;101887.22;5052055;28;20075;-63
2023/08/10 07:37:22;;;;;;;2.17;1.08;;;;;;;30.01;36.61;101886.63;5052205;28;20041;-62
2023/08/10 07:39:47;;;;;;;2.28;1.20;;;;;;;30.16;36.39;101895.34;5053511;28;20033;-63
2023/08/10 07:42:13;;;;;;;3.85;1.23;;;;;;;30.26;36.19;101889.28;5052112;28;20546;-62
2023/08/10 07:44:38;;;;;;;3.90;1.17;;;;;;;30.34;35.82;101877.91;5052291;28;20025;-63
2023/08/10 07:47:04;;;;;;;3.78;1.20;;;;;;;30.46;35.99;101890.72;5052145;28;20033;-62
2023/08/10 07:49:29;;;;;;;4.15;1.00;;;;;;;30.58;35.40;101879.69;5053415;28;20562;-63
2023/08/10 07:51:54;;;;;;;4.45;1.20;;;;;;;30.72;35.06;101877.56;5051542;28;20048;-63
2023/08/10 07:54:20;;;;;;;4.70;1.40;;;;;;;30.81;34.86;101876.16;5035036;28;20086;-63
2023/08/10 07:56:49;;;;;;;3.67;1.40;;;;;;;30.93;34.96;101874.28;5051768;28;20427;-63
2023/08/10 07:59:16;;;;;;;2.30;1.00;;;;;;;31.05;34.97;101872.38;5052000;28;20036;-63
2023/08/10 08:01:42;;;;;;;12.80;1.15;;;;;;;31.18;34.36;101865.78;5052058;28;20072;-63
2023/08/10 08:04:07;;;;;;;4.43;1.55;;;;;;;31.34;34.59;101868.66;5052246;28;20071;-63
2023/08/10 08:06:35;;;;;;;3.03;1.35;;;;;;;31.52;34.74;101874.09;5050616;28;20037;-63
2023/08/10 08:09:00;;;;;;;4.35;0.90;;;;;;;31.65;34.10;101868.31;5051764;28;20033;-63
2023/08/10 08:11:25;;;;;;;2.50;1.20;;;;;;;31.79;33.66;101862.50;5050550;28;20039;-63
2023/08/10 08:13:51;;;;;;;3.40;1.08;;;;;;;31.98;33.56;101869.56;5051696;28;20151;-63
2023/08/10 08:16:16;;;;;;;3.58;1.08;;;;;;;32.15;34.13;101862.19;5053335;28;20037;-63
2023/08/10 08:18:41;;;;;;;2.85;1.15;;;;;;;32.34;33.14;101865.59;5051733;28;20538;-63
2023/08/10 08:21:11;;;;;;;6.97;2.63;;;;;;;32.52;33.78;101869.03;5057753;28;20037;-63
2023/08/10 08:23:36;;;;;;;5.03;1.00;;;;;;;32.71;32.61;101856.63;5040543;28;20033;-63
2023/08/10 08:26:02;;;;;;;2.40;0.95;;;;;;;32.83;32.54;101851.84;5059913;28;20025;-64
2023/08/10 08:28:27;;;;;;;1.17;0.70;;;;;;;33.04;33.24;101860.50;5060843;28;20122;-63
2023/08/10 08:30:53;;;;;;;2.15;1.02;;;;;;;33.22;32.10;101857.50;5058501;28;20403;-63
2023/08/10 08:33:18;;;;;;;0.77;0.50;;;;;;;33.33;31.85;101851.84;5056162;28;20112;-63
2023/08/10 08:35:45;;;;;;;1.17;0.60;;;;;;;33.46;32.44;101852.56;5053042;28;20052;-64
2023/08/10 08:38:11;;;;;;;5.35;1.00;;;;;;;33.61;31.59;101856.47;5035812;28;20032;-63
2023/08/10 08:40:36;;;;;;;4.18;0.80;;;;;;;33.74;31.12;101850.50;5054250;28;20029;-64
2023/08/10 08:43:03;;;;;;;2.05;0.68;;;;;;;33.87;31.06;101850.13;5052618;28;20048;-64
2023/08/10 08:45:29;;;;;;;4.13;0.70;;;;;;;34.01;30.09;101860.84;5051490;28;20458;-64
2023/08/10 08:47:55;;;;;;;2.20;0.95;;;;;;;34.05;30.34;101862.03;5051446;28;20029;-63
2023/08/10 08:50:20;;;;;;;2.13;0.65;;;;;;;34.12;29.87;101855.19;5035291;28;20044;-63
2023/08/10 08:52:46;;;;;;;2.08;1.08;;;;;;;34.19;29.23;101866.13;5035051;28;20033;-63
2023/08/10 08:55:14;;;;;;;1.10;0.70;;;;;;;34.26;29.22;101869.53;5052914;28;20040;-62
2023/08/10 08:57:40;;;;;;;3.88;0.40;;;;;;;34.32;29.24;101860.13;5051707;28;20493;-62
2023/08/10 09:00:06;;;;;;;7.97;1.08;;;;;;;34.44;29.73;101858.06;5052997;28;20037;-64
2023/08/10 09:02:32;;;;;;;0.68;0.60;;;;;;;34.60;29.96;101853.50;5052934;28;20108;-62
2023/08/10 09:04:59;;;;;;;2.85;0.93;;;;;;;34.71;29.75;101864.47;5035023;28;20564;-62
2023/08/10 09:07:28;;;;;;;2.15;0.52;;;;;;;34.88;29.28;101856.84;5052667;28;20029;-62
2023/08/10 09:09:54;;;;;;;3.50;0.82;;;;;;;35.04;29.02;101853.06;5051444;28;20063;-62
2023/08/10 09:12:34;;;;;;;4.00;0.68;;;;;;;35.21;29.25;101844.56;5052264;28;20124;-62
2023/08/10 09:15:09;;;;;;;1.95;0.47;;;;;;;35.33;28.26;101844.38;5050617;28;20530;-62
2023/08/10 09:17:37;;;;;;;0.57;0.57;;;;;;;35.42;28.88;101839.97;5051982;28;20045;-62
2023/08/10 09:20:06;;;;;;;0.77;0.60;;;;;;;35.51;28.16;101846.72;5052235;28;20059;-62
2023/08/10 09:22:35;;;;;;;2.15;0.60;;;;;;;35.58;28.00;101844.56;5052373;28;20437;-63
2023/08/10 09:25:01;;;;;;;2.05;0.80;;;;;;;35.69;27.72;101835.13;5055128;28;20032;-62
2023/08/10 09:27:27;;;;;;;1.13;0.50;;;;;;;35.82;28.08;101829.03;5056228;28;20065;-62
2023/08/10 09:29:57;;;;;;;1.88;0.70;;;;;;;35.95;28.02;101839.72;5053640;28;20131;-62
2023/08/10 09:32:23;;;;;;;1.35;0.43;;;;;;;36.04;27.71;101838.09;5056073;28;20067;-62
2023/08/10 09:34:48;;;;;;;1.73;0.68;;;;;;;36.16;27.72;101835.91;5054827;28;20548;-62
2023/08/10 09:37:14;;;;;;;3.90;0.77;;;;;;;36.24;27.49;101836.50;5054562;28;20037;-62
2023/08/10 09:39:39;;;;;;;1.88;0.60;;;;;;;36.34;27.11;101842.09;5054515;28;20052;-63
2023/08/10 09:42:05;;;;;;;0.98;0.90;;;;;;;36.45;27.05;101841.00;5053963;28;20033;-62
2023/08/10 09:44:51;;;;;;;1.45;0.52;;;;;;;36.53;26.68;101840.47;5054256;28;20120;-62
2023/08/10 09:47:18;;;;;;;2.22;0.80;;;;;;;36.65;26.90;101832.66;5055683;28;20060;-62
2023/08/10 09:50:04;;;;;;;0.85;0.85;;;;;;;36.74;26.32;101829.03;5054049;28;20029;-62
2023/08/10 09:52:30;;;;;;;1.25;0.40;;;;;;;36.97;26.48;101833.25;5054112;28;20048;-62
2023/08/10 09:54:57;;;;;;;0.88;0.52;;;;;;;37.27;26.59;101836.00;5054281;28;20454;-63
2023/08/10 09:57:23;;;;;;;3.35;0.93;;;;;;;37.72;25.72;101828.59;5054125;28;20060;-63
2023/08/10 09:59:51;;;;;;;1.92;1.80;;;;;;;38.40;25.75;101824.09;5054340;28;20106;-62
2023/08/10 10:02:18;;;;;;;1.95;1.60;;;;;;;39.32;24.63;101820.25;5037646;28;20404;-62
2023/08/10 10:04:44;;;;;;;1.92;1.10;;;;;;;40.78;23.36;101828.66;5054071;28;20059;-62
2023/08/10 10:07:13;;;;;;;0.63;0.63;;;;;;;42.43;22.23;101836.06;5054153;28;20033;-62
2023/08/10 10:09:43;;;;;;;2.92;0.77;;;;;;;42.74;21.98;101835.03;5054389;28;20037;-62
2023/08/10 10:12:11;;;;;;;2.55;1.20;;;;;;;42.10;22.62;101844.66;5054332;28;20026;-63
2023/08/10 10:14:43;;;;;;;1.17;0.80;;;;;;;41.57;22.97;101840.75;5054124;28;20048;-62
2023/08/10 10:17:12;;;;;;;1.60;0.70;;;;;;;41.13;23.36;101846.91;5054042;28;20523;-62
2023/08/10 10:19:38;;;;;;;1.58;1.45;;;;;;;40.88;23.33;101847.31;5054154;28;20052;-63
2023/08/10 10:22:04;;;;;;;2.10;1.02;;;;;;;40.79;23.64;101844.38;5056276;28;20021;-62
2023/08/10 10:24:32;;;;;;;3.63;0.90;;;;;;;40.86;23.39;101844.00;5054311;28;20036;-62
2023/08/10 10:26:58;;;;;;;1.40;0.65;;;;;;;40.92;23.20;101845.59;5055375;28;20063;-63
2023/08/10 10:29:37;;;;;;;1.25;0.85;;;;;;;41.00;22.76;101853.34;5053856;28;20044;-62
2023/08/10 10:32:13;;;;;;;0.90;0.70;;;;;;;41.06;23.41;101846.47;5054832;28;20033;-63
2023/08/10 10:34:39;;;;;;;3.83;1.08;;;;;;;41.16;23.21;101843.47;5033185;28;20037;-62
2023/08/10 10:37:15;;;;;;;1.65;1.00;;;;;;;41.28;23.03;101838.19;5053496;28;20043;-62
2023/08/10 10:39:45;;;;;;;2.80;1.00;;;;;;;41.47;22.79;101836.16;5053382;28;20013;-62
2023/08/10 10:42:14;;;;;;;1.38;1.00;;;;;;;41.68;22.99;101837.38;5054453;28;20036;-62
2023/08/10 10:44:59;;;;;;;1.15;1.00;;;;;;;41.82;22.93;101830.97;5054553;28;20040;-62
2023/08/10 10:47:48;;;;;;;1.88;0.73;;;;;;;41.91;22.65;101826.25;5053595;28;20037;-63
2023/08/10 10:50:24;;;;;;;2.45;1.08;;;;;;;42.05;22.43;101827.03;5042653;28;20041;-62
2023/08/10 10:53:04;;;;;;;1.30;0.85;;;;;;;42.16;22.19;101832.16;5054569;28;20048;-63
2023/08/10 10:55:35;;;;;;;2.08;1.10;;;;;;;42.28;22.11;101823.16;5036494;28;20519;-62
2023/08/10 10:58:05;;;;;;;2.30;1.27;;;;;;;42.46;22.11;101819.34;5054484;28;20041;-62
2023/08/10 11:00:33;;;;;;;1.90;1.00;;;;;;;42.49;21.83;101818.72;5053132;28;20044;-62
2023/08/10 11:02:59;;;;;;;2.75;0.95;;;;;;;42.51;21.91;101815.56;5053132;28;20527;-62
2023/08/10 11:05:24;;;;;;;1.58;1.00;;;;;;;42.54;21.80;101810.13;5053026;28;20041;-62
2023/08/10 11:07:52;;;;;;;1.17;0.70;;;;;;;42.56;21.76;101813.47;5054081;28;20029;-62
2023/08/10 11:10:21;;;;;;;1.08;0.95;;;;;;;42.59;21.84;101798.75;5052816;28;20408;-62
2023/08/10 11:12:48;;;;;;;0.95;0.70;;;;;;;42.55;21.92;101794.09;5053856;28;20041;-64
2023/08/10 11:15:16;;;;;;;3.20;0.80;;;;;;;42.57;22.10;101795.41;5052804;28;20037;-65
2023/08/10 11:17:47;;;;;;;2.67;1.05;;;;;;;42.63;21.49;101802.59;5052808;28;20421;-64
2023/08/10 11:20:18;;;;;;;1.40;0.80;;;;;;;42.68;21.57;101793.16;5054733;28;20087;-65
2023/08/10 11:22:50;;;;;;;4.45;0.90;;;;;;;42.71;21.72;101793.38;5053024;28;20028;-64